Time;durP1;ratioP1;P1;durP2;ratioP2;P2;SDS_P1;SDS_P2;PMS_P1;PMS_P2;Temp;Humidity;BMP_temperature;BMP_pressure;BME280_temperature;BME280_humidity;BME280_pressure;Samples;Min_cycle;Max_cycle;Signal;HPM_P1;HPM_P2
2021/09/13 00:00:45;;;;;;;8.70;7.80;;;;;;;14.27;100.00;100898.41;4995814;28;20045;-80
2021/09/13 00:03:13;;;;;;;9.48;7.78;;;;;;;14.26;100.00;100894.03;5009384;28;20490;-80
2021/09/13 00:05:40;;;;;;;11.25;8.57;;;;;;;14.23;100.00;100892.34;4999105;28;20033;-81
2021/09/13 00:08:06;;;;;;;9.68;7.78;;;;;;;14.27;100.00;100887.78;4985993;28;20510;-80
2021/09/13 00:10:33;;;;;;;9.05;7.05;;;;;;;14.15;100.00;100901.47;4965692;28;20046;-80
2021/09/13 00:13:00;;;;;;;10.80;7.63;;;;;;;14.11;100.00;100898.03;5001022;28;20049;-80
2021/09/13 00:15:27;;;;;;;11.00;8.98;;;;;;;14.10;100.00;100896.28;4993187;28;20114;-80
2021/09/13 00:17:53;;;;;;;10.10;7.40;;;;;;;14.12;100.00;100898.91;5005915;28;20510;-80
2021/09/13 00:20:20;;;;;;;10.05;7.75;;;;;;;14.07;100.00;100897.28;5008250;28;20106;-80
2021/09/13 00:22:47;;;;;;;10.43;8.15;;;;;;;14.02;100.00;100900.97;4997666;28;20041;-80
2021/09/13 00:25:14;;;;;;;11.13;7.53;;;;;;;14.01;100.00;100901.91;4966491;28;20037;-79
2021/09/13 00:27:40;;;;;;;10.52;7.35;;;;;;;14.01;100.00;100902.75;5005858;28;20042;-81
2021/09/13 00:30:07;;;;;;;12.35;7.45;;;;;;;14.00;100.00;100903.69;5008259;28;20527;-81
2021/09/13 00:32:34;;;;;;;9.35;7.63;;;;;;;13.97;100.00;100895.81;5009192;28;20417;-80
2021/09/13 00:35:01;;;;;;;9.88;7.68;;;;;;;14.02;100.00;100898.31;5009675;28;20040;-80
2021/09/13 00:37:28;;;;;;;9.88;8.30;;;;;;;14.03;100.00;100900.91;5007367;28;20052;-80
2021/09/13 00:39:57;;;;;;;11.93;9.55;;;;;;;14.05;100.00;100895.59;5009537;28;20406;-81
2021/09/13 00:42:24;;;;;;;10.50;8.27;;;;;;;13.98;100.00;100897.56;4976270;28;20632;-81
2021/09/13 00:44:50;;;;;;;11.13;8.32;;;;;;;14.00;100.00;100901.03;4985759;28;20050;-80
2021/09/13 00:47:17;;;;;;;9.80;7.65;;;;;;;13.94;100.00;100900.34;5008194;28;20119;-80
2021/09/13 00:49:44;;;;;;;10.23;8.05;;;;;;;13.91;100.00;100895.13;4991843;28;20662;-80
2021/09/13 00:52:10;;;;;;;10.38;8.05;;;;;;;13.89;100.00;100897.84;4999393;28;20057;-79
2021/09/13 00:54:37;;;;;;;9.45;7.78;;;;;;;13.89;100.00;100894.31;4985956;28;20046;-80
2021/09/13 00:57:04;;;;;;;15.15;8.15;;;;;;;13.90;100.00;100899.56;4965606;28;20140;-80
2021/09/13 00:59:31;;;;;;;13.20;9.48;;;;;;;13.92;100.00;100889.75;4980530;28;20072;-81
2021/09/13 01:01:58;;;;;;;12.80;9.77;;;;;;;13.95;100.00;100887.00;4985815;28;20057;-81
2021/09/13 01:04:25;;;;;;;11.68;8.75;;;;;;;14.01;100.00;100891.28;4976276;28;20080;-80
2021/09/13 01:06:51;;;;;;;12.65;9.85;;;;;;;14.06;100.00;100889.34;5006052;28;20530;-80
2021/09/13 01:09:23;;;;;;;10.95;8.65;;;;;;;14.06;100.00;100894.66;4986390;28;20046;-80
2021/09/13 01:11:51;;;;;;;11.93;8.80;;;;;;;14.11;100.00;100895.38;5005123;28;20052;-80
2021/09/13 01:14:19;;;;;;;11.10;9.27;;;;;;;14.14;100.00;100891.78;4991953;28;20034;-80
2021/09/13 01:16:45;;;;;;;11.02;8.90;;;;;;;14.17;100.00;100894.31;5012035;28;20061;-80
2021/09/13 01:19:12;;;;;;;10.63;8.40;;;;;;;14.15;100.00;100891.72;4980304;28;20053;-81
2021/09/13 01:21:40;;;;;;;11.13;8.35;;;;;;;14.15;100.00;100889.06;5008055;28;20045;-80
2021/09/13 01:24:09;;;;;;;8.98;7.57;;;;;;;14.12;100.00;100891.78;4984206;28;20042;-80
2021/09/13 01:26:35;;;;;;;9.77;7.70;;;;;;;14.11;100.00;100891.84;4971127;28;20092;-80
2021/09/13 01:29:02;;;;;;;11.30;8.13;;;;;;;14.08;100.00;100892.81;5005494;28;20625;-79
2021/09/13 01:31:30;;;;;;;10.38;8.30;;;;;;;14.02;100.00;100885.03;4992876;28;20702;-80
2021/09/13 01:33:57;;;;;;;8.88;7.95;;;;;;;14.04;100.00;100886.75;5027596;28;20604;-80
2021/09/13 01:36:23;;;;;;;9.07;7.28;;;;;;;13.97;100.00;100879.00;4993931;28;20041;-80
2021/09/13 01:38:50;;;;;;;11.57;7.88;;;;;;;13.94;100.00;100895.88;4980120;28;20224;-80
2021/09/13 01:41:17;;;;;;;9.98;7.90;;;;;;;13.83;100.00;100895.34;5013862;28;20060;-80
2021/09/13 01:43:43;;;;;;;10.23;7.20;;;;;;;13.78;100.00;100895.47;5003474;28;20076;-80
2021/09/13 01:46:10;;;;;;;9.68;7.63;;;;;;;13.68;100.00;100899.34;5010349;28;20072;-80
2021/09/13 01:48:37;;;;;;;9.70;6.75;;;;;;;13.65;100.00;100896.78;5010218;28;20030;-80
2021/09/13 01:51:03;;;;;;;9.23;7.95;;;;;;;13.62;100.00;100896.88;4990022;28;20046;-79
2021/09/13 01:53:30;;;;;;;10.43;7.80;;;;;;;13.56;100.00;100898.84;5014476;28;20462;-80
2021/09/13 01:55:56;;;;;;;11.35;8.15;;;;;;;13.55;100.00;100897.09;4991684;28;20107;-80
2021/09/13 01:58:23;;;;;;;9.70;7.53;;;;;;;13.51;100.00;100899.81;5012117;28;20043;-80
2021/09/13 02:00:50;;;;;;;8.38;7.30;;;;;;;13.37;100.00;100899.38;4971878;28;20099;-79
2021/09/13 02:03:17;;;;;;;10.75;7.43;;;;;;;13.40;100.00;100903.72;4991982;28;20115;-80
2021/09/13 02:05:44;;;;;;;9.48;7.28;;;;;;;13.31;100.00;100901.31;5011848;28;20037;-80
2021/09/13 02:08:10;;;;;;;9.48;6.68;;;;;;;13.32;100.00;100898.63;4991061;28;20041;-80
2021/09/13 02:10:37;;;;;;;10.13;7.65;;;;;;;13.26;100.00;100917.34;5005381;28;20100;-80
2021/09/13 02:13:04;;;;;;;10.60;7.97;;;;;;;13.20;100.00;100917.50;5025177;22;20055;-78
2021/09/13 02:15:30;;;;;;;8.50;6.90;;;;;;;13.15;100.00;100917.63;5009522;28;20040;-79
2021/09/13 02:17:57;;;;;;;9.30;7.25;;;;;;;13.13;100.00;100921.22;5012249;28;20053;-79
2021/09/13 02:20:24;;;;;;;9.55;7.63;;;;;;;13.12;100.00;100920.38;5016033;28;20053;-79
2021/09/13 02:22:50;;;;;;;10.32;7.72;;;;;;;13.10;100.00;100923.94;5037441;28;20044;-79
2021/09/13 02:25:17;;;;;;;8.10;6.80;;;;;;;13.11;100.00;100923.03;4997284;28;20033;-79
2021/09/13 02:27:43;;;;;;;8.80;7.70;;;;;;;13.15;100.00;100919.41;4993477;28;20096;-78
2021/09/13 02:30:11;;;;;;;9.60;7.55;;;;;;;13.15;100.00;100932.66;5009572;28;20402;-78
2021/09/13 02:32:37;;;;;;;9.90;6.78;;;;;;;13.17;100.00;100928.19;5011319;28;20049;-79
2021/09/13 02:35:05;;;;;;;9.20;6.80;;;;;;;13.16;100.00;100929.09;5000141;28;20037;-78
2021/09/13 02:37:32;;;;;;;10.10;6.90;;;;;;;13.14;100.00;100937.09;4994924;28;20044;-79
2021/09/13 02:39:59;;;;;;;8.35;6.68;;;;;;;13.14;100.00;100934.44;4997847;28;20045;-80
2021/09/13 02:42:27;;;;;;;9.02;7.38;;;;;;;13.11;100.00;100933.63;4977452;28;20034;-79
2021/09/13 02:44:53;;;;;;;8.65;7.05;;;;;;;13.06;100.00;100939.09;4995680;28;20048;-80
2021/09/13 02:47:20;;;;;;;8.98;7.28;;;;;;;13.06;100.00;100933.78;5002299;28;20045;-80
2021/09/13 02:49:47;;;;;;;9.02;7.55;;;;;;;13.02;100.00;100936.53;4977120;28;20095;-79
2021/09/13 02:52:13;;;;;;;9.02;7.63;;;;;;;12.96;100.00;100933.16;5010176;28;20077;-80
2021/09/13 02:54:40;;;;;;;9.15;7.45;;;;;;;12.93;100.00;100932.34;4979508;28;20056;-80
2021/09/13 02:57:07;;;;;;;8.98;6.53;;;;;;;12.90;100.00;100935.09;5010915;28;20033;-79
2021/09/13 02:59:33;;;;;;;8.40;7.07;;;;;;;12.91;100.00;100931.53;5007572;28;20038;-78
2021/09/13 03:02:00;;;;;;;8.70;6.78;;;;;;;12.89;100.00;100934.22;4996073;28;20068;-80
2021/09/13 03:04:27;;;;;;;9.07;7.15;;;;;;;12.86;100.00;100939.59;4998558;28;20042;-79
2021/09/13 03:06:54;;;;;;;8.35;6.47;;;;;;;12.82;100.00;100937.06;5012822;28;20045;-80
2021/09/13 03:09:23;;;;;;;7.93;6.55;;;;;;;12.79;100.00;100939.81;5013273;28;20055;-78
2021/09/13 03:11:50;;;;;;;9.77;6.95;;;;;;;12.75;100.00;100944.28;5013141;28;20573;-81
2021/09/13 03:14:17;;;;;;;9.02;7.55;;;;;;;12.72;100.00;100943.50;4997796;28;20049;-79
2021/09/13 03:16:43;;;;;;;11.25;7.63;;;;;;;12.63;100.00;100936.66;5028318;28;20056;-79
2021/09/13 03:19:10;;;;;;;9.40;7.22;;;;;;;12.62;100.00;100940.22;5015930;28;20080;-77
2021/09/13 03:21:37;;;;;;;10.45;7.72;;;;;;;12.61;100.00;100933.16;5017364;28;20049;-78
2021/09/13 03:24:04;;;;;;;8.95;7.32;;;;;;;12.54;100.00;100934.22;4983155;28;20129;-78
2021/09/13 03:26:31;;;;;;;9.27;6.75;;;;;;;12.50;100.00;100930.75;4978188;28;20100;-81
2021/09/13 03:28:57;;;;;;;8.70;6.65;;;;;;;12.46;100.00;100937.06;4998975;28;20041;-79
2021/09/13 03:31:24;;;;;;;7.78;5.72;;;;;;;12.42;100.00;100935.38;5007503;28;20418;-78
2021/09/13 03:33:51;;;;;;;8.25;7.10;;;;;;;12.46;100.00;100941.50;5004441;28;20052;-79
2021/09/13 03:36:17;;;;;;;7.68;6.20;;;;;;;12.44;100.00;100935.34;4998920;28;20092;-77
2021/09/13 03:38:44;;;;;;;9.35;6.82;;;;;;;12.45;100.00;100939.75;4987775;28;20050;-77
2021/09/13 03:41:11;;;;;;;8.43;5.82;;;;;;;12.35;100.00;100949.66;5008026;28;20041;-77
2021/09/13 03:43:37;;;;;;;8.25;6.72;;;;;;;12.32;100.00;100952.41;4999162;28;20045;-80
2021/09/13 03:46:04;;;;;;;8.85;6.65;;;;;;;12.30;100.00;100956.88;4996491;28;20037;-77
2021/09/13 03:48:31;;;;;;;10.13;6.93;;;;;;;12.31;100.00;100955.97;5013952;28;20042;-77
2021/09/13 03:50:57;;;;;;;9.70;7.05;;;;;;;12.32;100.00;100947.97;4995229;28;20103;-80
2021/09/13 03:53:24;;;;;;;8.23;7.28;;;;;;;12.34;100.00;100955.88;4995014;28;20049;-80
2021/09/13 03:55:51;;;;;;;10.20;7.55;;;;;;;12.33;100.00;100949.72;5018902;28;20125;-79
2021/09/13 03:58:18;;;;;;;9.15;6.85;;;;;;;12.30;100.00;100951.56;5008291;28;20728;-82
2021/09/13 04:00:44;;;;;;;8.20;6.75;;;;;;;12.28;100.00;100954.25;4991067;28;20041;-78
2021/09/13 04:03:20;;;;;;;9.10;6.82;;;;;;;12.23;100.00;100958.78;4991299;28;20057;-83
2021/09/13 04:05:50;;;;;;;9.75;7.57;;;;;;;12.24;100.00;100954.34;5014568;28;20033;-82
2021/09/13 04:13:25;;;;;;;10.63;6.70;;;;;;;12.11;100.00;100967.88;5002078;28;20040;-77
2021/09/13 04:15:51;;;;;;;8.23;6.80;;;;;;;12.11;100.00;100957.28;5018463;28;20044;-78
2021/09/13 04:18:18;;;;;;;9.93;7.53;;;;;;;12.08;100.00;100952.03;4981838;28;20128;-79
2021/09/13 04:20:45;;;;;;;9.88;7.22;;;;;;;12.04;100.00;100955.66;4987764;28;20042;-78
2021/09/13 04:23:11;;;;;;;11.63;6.97;;;;;;;12.02;100.00;100960.13;5013870;28;20532;-77
2021/09/13 04:25:38;;;;;;;9.05;7.10;;;;;;;12.01;100.00;100957.50;4998243;28;20402;-82
2021/09/13 04:28:05;;;;;;;8.70;6.93;;;;;;;11.98;100.00;100955.78;4998049;28;20613;-80
2021/09/13 04:30:31;;;;;;;11.18;7.63;;;;;;;11.98;100.00;100957.56;4996947;28;20502;-77
2021/09/13 04:32:58;;;;;;;11.70;7.18;;;;;;;11.91;100.00;100951.53;4980111;28;20048;-82
2021/09/13 04:35:25;;;;;;;9.05;6.97;;;;;;;11.88;100.00;100950.75;5032850;28;20033;-79
2021/09/13 04:37:52;;;;;;;9.18;6.88;;;;;;;11.89;100.00;100949.81;4998313;28;20504;-80
2021/09/13 04:40:19;;;;;;;9.68;7.22;;;;;;;11.88;100.00;100950.75;5016321;28;20046;-79
2021/09/13 04:42:45;;;;;;;9.82;7.07;;;;;;;11.86;100.00;100953.44;4999578;28;20045;-79
2021/09/13 04:45:12;;;;;;;8.70;6.65;;;;;;;11.82;100.00;100957.03;5000745;28;20037;-79
2021/09/13 04:47:39;;;;;;;11.13;6.97;;;;;;;11.83;100.00;100954.34;5015829;28;20040;-83
2021/09/13 04:50:06;;;;;;;9.18;6.50;;;;;;;11.77;100.00;100951.81;5015405;28;20049;-79
2021/09/13 04:52:33;;;;;;;8.23;6.30;;;;;;;11.86;100.00;100953.44;5010156;28;20049;-80
2021/09/13 04:54:59;;;;;;;9.02;7.00;;;;;;;11.77;100.00;100948.25;4999930;28;20045;-80
2021/09/13 04:57:26;;;;;;;9.90;6.63;;;;;;;11.81;100.00;100948.22;5001377;28;20037;-78
2021/09/13 04:59:53;;;;;;;8.23;6.65;;;;;;;11.78;100.00;100953.53;5025622;28;20049;-78
2021/09/13 05:02:19;;;;;;;9.10;6.60;;;;;;;11.81;100.00;100956.16;4986570;28;20399;-81
2021/09/13 05:04:46;;;;;;;8.65;6.30;;;;;;;11.78;100.00;100956.19;4976799;28;20137;-78
2021/09/13 05:07:13;;;;;;;8.07;6.70;;;;;;;11.78;100.00;100950.03;4997234;28;20041;-77
2021/09/13 05:09:40;;;;;;;9.07;6.97;;;;;;;11.80;100.00;100950.91;5025757;28;20052;-81
2021/09/13 05:12:07;;;;;;;8.80;6.45;;;;;;;11.86;100.00;100952.56;5046360;28;20048;-79
2021/09/13 05:14:33;;;;;;;7.85;6.25;;;;;;;11.86;100.00;100949.91;5015913;28;20099;-78
2021/09/13 05:17:00;;;;;;;9.40;7.00;;;;;;;11.91;100.00;100954.19;5027250;28;20057;-79
2021/09/13 05:19:27;;;;;;;9.13;6.97;;;;;;;11.89;100.00;100960.41;4974787;28;20045;-80
2021/09/13 05:21:54;;;;;;;7.50;6.18;;;;;;;11.94;100.00;100958.53;5002480;28;20068;-82
2021/09/13 05:24:20;;;;;;;10.25;7.50;;;;;;;11.97;100.00;100961.13;5020261;28;20514;-79
2021/09/13 05:26:47;;;;;;;9.32;6.75;;;;;;;12.00;100.00;100953.09;5003377;28;20037;-77
2021/09/13 05:29:14;;;;;;;9.90;7.43;;;;;;;12.16;100.00;100956.28;5001327;28;20053;-82
2021/09/13 05:31:40;;;;;;;10.27;7.32;;;;;;;12.31;100.00;100958.59;5014822;28;20048;-79
2021/09/13 05:34:07;;;;;;;9.85;7.72;;;;;;;12.46;100.00;100960.03;5018341;28;20037;-77
2021/09/13 05:36:34;;;;;;;10.13;7.25;;;;;;;12.58;100.00;100957.94;5000702;28;20034;-77
2021/09/13 05:39:01;;;;;;;8.13;6.65;;;;;;;12.66;100.00;100963.94;5016599;28;20041;-80
2021/09/13 05:41:27;;;;;;;10.10;7.43;;;;;;;12.82;100.00;100963.56;5020147;28;20498;-78
2021/09/13 05:43:54;;;;;;;8.85;7.25;;;;;;;12.88;100.00;100960.78;5018266;28;20445;-78
2021/09/13 05:46:20;;;;;;;9.10;7.28;;;;;;;12.96;100.00;100964.09;5018687;28;20037;-82
2021/09/13 05:48:48;;;;;;;10.73;7.68;;;;;;;13.06;100.00;100962.97;5017473;28;20063;-79
2021/09/13 05:51:14;;;;;;;10.02;7.57;;;;;;;13.14;100.00;100963.63;5001517;28;20895;-81
2021/09/13 05:53:41;;;;;;;11.82;9.10;;;;;;;13.21;100.00;100969.69;5018915;28;20033;-79
2021/09/13 05:56:07;;;;;;;10.32;7.70;;;;;;;13.31;100.00;100968.53;5005923;28;20107;-78
2021/09/13 05:58:34;;;;;;;11.75;7.35;;;;;;;13.41;100.00;100974.44;5000917;28;20049;-79
2021/09/13 06:01:01;;;;;;;14.00;8.50;;;;;;;13.45;100.00;100969.03;5040828;28;20038;-80
2021/09/13 06:03:28;;;;;;;11.68;7.70;;;;;;;13.58;100.00;100972.19;4989603;28;20069;-78
2021/09/13 06:05:55;;;;;;;8.77;6.57;;;;;;;13.65;100.00;100972.91;5019218;28;20041;-78
2021/09/13 06:08:21;;;;;;;8.05;6.75;;;;;;;13.73;100.00;100969.13;5007348;28;20052;-82
2021/09/13 06:10:48;;;;;;;9.63;7.75;;;;;;;13.79;100.00;100978.72;4979731;28;20489;-79
2021/09/13 06:13:15;;;;;;;10.23;6.57;;;;;;;13.79;100.00;100973.41;5016740;28;20068;-78
2021/09/13 06:15:41;;;;;;;9.55;6.90;;;;;;;13.82;100.00;100972.44;5018712;28;20513;-79
2021/09/13 06:18:10;;;;;;;9.15;6.80;;;;;;;13.86;100.00;100974.94;4973852;28;20507;-79
2021/09/13 06:20:36;;;;;;;8.10;6.30;;;;;;;13.89;100.00;100972.22;5008700;28;20053;-80
2021/09/13 06:23:03;;;;;;;9.13;6.05;;;;;;;13.92;100.00;100972.09;5001602;28;20049;-78
2021/09/13 06:25:30;;;;;;;9.93;5.90;;;;;;;13.94;100.00;100972.06;5003376;28;20449;-82
2021/09/13 06:27:56;;;;;;;9.40;5.90;;;;;;;13.97;100.00;100970.19;5001068;28;20048;-78
2021/09/13 06:30:23;;;;;;;9.13;7.28;;;;;;;14.08;100.00;100969.88;4985921;28;20045;-78
2021/09/13 06:32:50;;;;;;;9.48;5.75;;;;;;;14.08;100.00;100972.53;5004877;28;20045;-83
2021/09/13 06:35:16;;;;;;;9.02;6.70;;;;;;;14.11;100.00;100969.75;5016890;28;20049;-79
2021/09/13 06:37:43;;;;;;;7.43;6.05;;;;;;;14.12;100.00;100973.28;4998727;28;20076;-79
2021/09/13 06:40:10;;;;;;;9.00;6.88;;;;;;;14.09;100.00;100967.16;4983192;28;20099;-83
2021/09/13 06:42:37;;;;;;;8.45;6.25;;;;;;;14.18;100.00;100970.47;4998231;28;20061;-77
2021/09/13 06:45:09;;;;;;;9.27;6.55;;;;;;;14.24;100.00;100970.28;4985764;28;20045;-81
2021/09/13 06:47:46;;;;;;;7.75;5.93;;;;;;;14.31;100.00;100964.72;5016537;28;20044;-81
2021/09/13 06:50:26;;;;;;;7.55;6.15;;;;;;;14.45;100.00;100971.38;5010422;28;20049;-79
2021/09/13 06:52:54;;;;;;;8.20;6.15;;;;;;;14.48;100.00;100976.66;5003864;28;20045;-80
2021/09/13 06:55:23;;;;;;;7.03;5.57;;;;;;;14.59;100.00;100972.72;5016344;28;20103;-81
2021/09/13 06:57:50;;;;;;;7.65;5.85;;;;;;;14.63;100.00;100982.38;4993930;28;20057;-78
2021/09/13 07:00:18;;;;;;;7.05;5.57;;;;;;;14.73;100.00;100979.41;5004646;28;20112;-79
2021/09/13 07:02:46;;;;;;;7.25;5.20;;;;;;;14.89;100.00;100984.19;5014966;28;20502;-79
2021/09/13 07:05:13;;;;;;;7.90;5.40;;;;;;;14.95;100.00;100983.06;4994665;28;20045;-80
2021/09/13 07:07:43;;;;;;;8.95;5.47;;;;;;;15.13;100.00;100987.81;5000800;28;20049;-81
2021/09/13 07:10:16;;;;;;;9.77;5.50;;;;;;;15.25;100.00;100989.16;4996638;28;20058;-78
2021/09/13 07:12:44;;;;;;;9.60;5.40;;;;;;;15.30;100.00;100997.88;4990407;28;20072;-79
2021/09/13 07:15:11;;;;;;;7.22;5.22;;;;;;;15.39;100.00;100994.88;4988299;28;20123;-79
2021/09/13 07:17:38;;;;;;;7.10;5.68;;;;;;;15.46;100.00;100992.84;4985226;28;20046;-80
2021/09/13 07:20:05;;;;;;;6.38;4.75;;;;;;;15.54;100.00;100998.78;5009798;28;20065;-79
2021/09/13 07:22:31;;;;;;;6.80;4.95;;;;;;;15.67;100.00;101005.47;4984827;28;20054;-79
2021/09/13 07:24:58;;;;;;;8.20;5.05;;;;;;;15.67;100.00;101007.25;4992625;28;20054;-79
2021/09/13 07:27:25;;;;;;;6.00;4.78;;;;;;;15.86;100.00;101013.63;4995216;28;20034;-79
2021/09/13 07:29:52;;;;;;;5.63;4.40;;;;;;;15.91;100.00;101019.69;4990249;28;20069;-78
2021/09/13 07:32:19;;;;;;;7.07;4.25;;;;;;;15.93;100.00;101015.16;4991694;28;20502;-82
2021/09/13 07:34:46;;;;;;;7.53;4.30;;;;;;;15.97;100.00;101015.91;4995924;28;20057;-79
2021/09/13 07:37:13;;;;;;;6.15;4.45;;;;;;;15.88;100.00;101016.25;4993252;28;20045;-78
2021/09/13 07:39:39;;;;;;;9.43;4.90;;;;;;;16.03;100.00;101019.22;4995746;28;20053;-78
2021/09/13 07:42:06;;;;;;;6.85;5.00;;;;;;;15.92;100.00;101020.56;4976076;28;20053;-79
2021/09/13 07:44:33;;;;;;;9.70;5.55;;;;;;;16.04;100.00;101026.28;4996759;28;20049;-78
2021/09/13 07:46:59;;;;;;;5.90;4.63;;;;;;;16.00;100.00;101018.47;5009475;28;20049;-79
2021/09/13 07:49:26;;;;;;;6.10;3.92;;;;;;;16.00;100.00;101019.34;4976430;28;20038;-80
2021/09/13 07:51:53;;;;;;;5.47;4.32;;;;;;;16.23;100.00;101017.63;4964733;28;20495;-79
2021/09/13 07:54:20;;;;;;;6.85;4.70;;;;;;;16.21;100.00;101022.97;4997360;28;20395;-79
2021/09/13 07:56:47;;;;;;;6.85;4.28;;;;;;;16.26;100.00;101026.34;4996272;28;20038;-80
2021/09/13 07:59:13;;;;;;;7.38;4.38;;;;;;;16.37;100.00;101036.59;4994420;28;20053;-80
2021/09/13 08:01:40;;;;;;;7.28;3.80;;;;;;;16.50;100.00;101034.34;4980006;28;20049;-79
2021/09/13 08:04:11;;;;;;;4.90;4.35;;;;;;;16.66;100.00;101032.81;5025271;28;20073;-79
2021/09/13 08:06:38;;;;;;;5.93;3.47;;;;;;;16.86;100.00;101032.03;4993143;28;20050;-80
2021/09/13 08:09:07;;;;;;;5.22;3.60;;;;;;;17.02;96.56;101037.63;4999766;28;20115;-79
2021/09/13 08:11:38;;;;;;;5.73;3.67;;;;;;;16.91;96.31;101039.88;4973366;28;20066;-80
2021/09/13 08:14:04;;;;;;;6.50;3.55;;;;;;;16.94;98.49;101037.94;5008684;28;20323;-80
2021/09/13 08:16:31;;;;;;;5.35;3.45;;;;;;;16.97;98.82;101039.59;4979941;28;20037;-80
2021/09/13 08:18:59;;;;;;;4.85;3.08;;;;;;;17.08;97.97;101053.41;4993663;28;20418;-78
2021/09/13 08:21:27;;;;;;;5.40;4.20;;;;;;;17.24;96.87;101051.81;5080374;23;20100;-80
2021/09/13 08:23:55;;;;;;;5.95;3.40;;;;;;;17.22;95.03;101058.16;4991713;28;20100;-84
2021/09/13 08:26:22;;;;;;;6.63;3.50;;;;;;;17.35;93.26;101068.25;4998082;28;20045;-83
2021/09/13 08:28:49;;;;;;;5.30;3.28;;;;;;;17.35;90.59;101067.41;4990031;28;20050;-81
2021/09/13 08:31:15;;;;;;;6.47;3.45;;;;;;;17.35;93.38;101073.59;4949542;28;20038;-81
2021/09/13 08:33:42;;;;;;;4.65;3.60;;;;;;;17.40;93.99;101070.72;4993337;28;20089;-81
2021/09/13 08:36:09;;;;;;;6.85;3.45;;;;;;;17.48;93.90;101070.41;5010806;28;20042;-82
2021/09/13 08:38:36;;;;;;;4.10;3.33;;;;;;;17.41;93.72;101075.16;4995977;28;20042;-83
2021/09/13 08:41:03;;;;;;;5.05;3.13;;;;;;;17.50;93.33;101079.25;5003399;28;20104;-82
2021/09/13 08:43:30;;;;;;;4.82;3.13;;;;;;;17.36;93.58;101088.69;5006489;28;20049;-81
2021/09/13 08:46:15;;;;;;;6.13;3.50;;;;;;;17.29;93.73;101091.69;5021715;28;20078;-83
2021/09/13 08:48:57;;;;;;;6.30;3.40;;;;;;;17.25;92.84;101079.41;4985864;28;20057;-83
2021/09/13 08:51:30;;;;;;;5.50;3.90;;;;;;;17.33;91.29;101087.97;4984156;28;20288;-82
2021/09/13 08:54:02;;;;;;;4.72;3.50;;;;;;;17.27;93.06;101090.88;4999828;28;20656;-83
2021/09/13 08:56:39;;;;;;;7.57;3.65;;;;;;;17.31;91.91;101096.00;5001854;28;20474;-83
2021/09/13 08:59:11;;;;;;;6.88;4.10;;;;;;;17.29;92.45;101097.88;5016398;28;20096;-83
2021/09/13 09:01:39;;;;;;;4.55;3.67;;;;;;;17.24;92.31;101099.91;4996336;28;20107;-84
2021/09/13 09:04:08;;;;;;;7.07;4.50;;;;;;;17.19;92.79;101104.53;4998427;28;20053;-85
2021/09/13 09:06:41;;;;;;;7.30;4.22;;;;;;;17.20;93.42;101100.94;5011585;28;20085;-85
2021/09/13 09:09:12;;;;;;;8.60;5.05;;;;;;;17.24;92.28;101107.91;4999516;28;20061;-85
2021/09/13 09:12:02;;;;;;;14.77;5.45;;;;;;;17.26;93.08;101111.38;5016320;28;20137;-82
2021/09/13 09:14:41;;;;;;;7.60;5.00;;;;;;;17.38;92.97;101118.88;5005027;28;20038;-83
2021/09/13 09:17:25;;;;;;;5.65;4.22;;;;;;;17.51;91.03;101121.03;5013732;28;20069;-81
2021/09/13 09:20:10;;;;;;;5.35;4.40;;;;;;;17.47;91.23;101125.63;5013578;28;20050;-82
2021/09/13 09:22:40;;;;;;;7.05;4.38;;;;;;;17.50;89.96;101128.19;5014237;28;20443;-84
2021/09/13 09:25:24;;;;;;;6.93;4.00;;;;;;;17.51;90.74;101127.25;4995562;28;20717;-82
2021/09/13 09:28:01;;;;;;;;;;;;;;;17.40;90.73;101130.38;5003582;28;20041;-83
2021/09/13 09:30:46;;;;;;;4.75;4.28;;;;;;;17.44;91.90;101129.31;4998151;28;19921;-83
2021/09/13 09:33:15;;;;;;;6.00;3.70;;;;;;;17.63;91.53;101128.53;5004494;28;20046;-82
2021/09/13 09:35:49;;;;;;;7.65;3.63;;;;;;;17.84;89.60;101132.16;5012291;28;20046;-82
2021/09/13 09:38:32;;;;;;;5.75;3.33;;;;;;;18.11;90.14;101127.38;5014717;28;20097;-82
2021/09/13 09:41:14;;;;;;;3.85;3.45;;;;;;;18.25;79.92;101130.31;4999200;28;20045;-83
2021/09/13 09:44:00;;;;;;;6.38;3.22;;;;;;;18.36;80.74;101127.16;5010747;28;20574;-82
2021/09/13 09:46:39;;;;;;;4.47;3.05;;;;;;;18.44;79.40;101135.72;4999175;28;20053;-82
2021/09/13 09:49:14;;;;;;;4.22;2.70;;;;;;;18.12;82.32;101119.28;5014488;28;20081;-82
2021/09/13 09:51:49;;;;;;;3.63;3.00;;;;;;;18.07;82.18;101131.13;4997302;28;20044;-83
2021/09/13 09:54:28;;;;;;;3.58;2.97;;;;;;;17.94;82.70;101136.16;4982240;28;20113;-83
2021/09/13 09:57:04;;;;;;;3.22;2.65;;;;;;;17.76;84.62;101137.81;4995764;28;20038;-82
2021/09/13 09:59:35;;;;;;;4.13;2.67;;;;;;;17.70;83.43;101138.06;4996580;28;20459;-82
2021/09/13 10:02:11;;;;;;;3.00;2.58;;;;;;;17.64;86.01;101136.47;4987826;28;20621;-83
2021/09/13 10:04:39;;;;;;;4.07;2.40;;;;;;;17.75;86.97;101140.56;4986817;28;20491;-82
2021/09/13 10:07:06;;;;;;;5.20;2.40;;;;;;;17.87;84.52;101129.31;5001240;28;20472;-82
2021/09/13 10:09:36;;;;;;;5.15;3.10;;;;;;;17.83;85.39;101144.63;5011934;28;20049;-82
2021/09/13 10:12:06;;;;;;;3.80;2.75;;;;;;;17.76;82.53;101135.13;5010173;28;20045;-82
2021/09/13 10:14:34;;;;;;;4.40;2.40;;;;;;;17.71;83.33;101134.44;5010463;28;20042;-82
2021/09/13 10:17:01;;;;;;;4.25;2.10;;;;;;;17.68;85.05;101134.56;4994515;28;20061;-82
2021/09/13 10:19:49;;;;;;;3.95;2.42;;;;;;;17.62;87.10;101140.16;5011507;28;20042;-82
2021/09/13 10:22:16;;;;;;;4.05;2.33;;;;;;;17.44;85.57;101141.78;5010272;28;20109;-81
2021/09/13 10:24:45;;;;;;;4.10;2.50;;;;;;;17.38;87.40;101150.91;5009999;28;20053;-83
2021/09/13 10:27:15;;;;;;;2.58;2.03;;;;;;;17.38;85.95;101145.56;4993797;28;20041;-83
2021/09/13 10:29:48;;;;;;;3.53;2.25;;;;;;;17.14;86.06;101144.75;4992940;28;20384;-83
2021/09/13 10:32:29;;;;;;;3.40;2.22;;;;;;;17.13;87.77;101144.81;4964005;28;20042;-82
2021/09/13 10:34:57;;;;;;;3.92;2.22;;;;;;;17.21;90.79;101145.38;4958798;28;20642;-83
2021/09/13 10:37:26;;;;;;;3.42;2.42;;;;;;;17.29;90.81;101142.41;4991379;28;20072;-81
2021/09/13 10:40:06;;;;;;;3.92;2.42;;;;;;;17.44;91.13;101148.00;4976488;28;20042;-81
2021/09/13 10:42:53;;;;;;;4.57;2.30;;;;;;;17.49;90.29;101144.25;5011297;28;20054;-82
2021/09/13 10:45:39;;;;;;;3.83;2.38;;;;;;;17.54;85.84;101148.50;4995033;28;20045;-83
2021/09/13 10:48:17;;;;;;;4.57;2.47;;;;;;;17.53;87.13;101145.88;5007145;28;20041;-83
2021/09/13 10:50:48;;;;;;;3.83;2.13;;;;;;;17.56;87.14;101149.28;5000393;28;20096;-83
2021/09/13 10:53:18;;;;;;;4.53;2.20;;;;;;;17.51;86.54;101145.97;5010435;28;20053;-82
2021/09/13 10:55:52;;;;;;;2.55;2.35;;;;;;;17.43;87.69;101151.63;5003326;28;20832;-81
2021/09/13 10:58:20;;;;;;;3.00;2.30;;;;;;;17.48;88.08;101150.53;5014009;28;20054;-81
2021/09/13 11:00:49;;;;;;;4.45;2.00;;;;;;;17.50;86.99;101146.03;5009393;28;20504;-82
2021/09/13 11:03:22;;;;;;;3.03;2.15;;;;;;;17.52;87.58;101153.03;4974483;28;20046;-82
2021/09/13 11:06:05;;;;;;;3.75;2.50;;;;;;;17.63;85.02;101148.09;4992195;28;20491;-82
2021/09/13 11:08:41;;;;;;;4.35;2.50;;;;;;;17.73;85.57;101148.63;4984400;28;20410;-81
2021/09/13 11:11:15;;;;;;;3.65;2.13;;;;;;;17.74;84.25;101161.06;4989757;28;20046;-80
2021/09/13 11:13:43;;;;;;;3.08;1.83;;;;;;;17.77;82.31;101154.72;4979935;28;20052;-82
2021/09/13 11:16:10;;;;;;;2.95;1.73;;;;;;;17.49;78.82;101157.63;4995142;28;20050;-81
2021/09/13 11:18:39;;;;;;;2.47;1.80;;;;;;;17.57;80.36;101161.75;4988776;28;20042;-82
2021/09/13 11:21:18;;;;;;;3.15;1.67;;;;;;;17.47;80.24;101162.16;4994971;28;20128;-81
2021/09/13 11:24:04;;;;;;;2.90;1.75;;;;;;;17.44;78.77;101164.03;5007171;28;20046;-82
2021/09/13 11:26:36;;;;;;;3.40;1.80;;;;;;;17.46;79.82;101155.94;4994724;28;20046;-81
2021/09/13 11:29:19;;;;;;;2.20;1.58;;;;;;;17.43;79.59;101150.75;5008214;28;20046;-81